Time;durP1;ratioP1;P1;durP2;ratioP2;P2;SDS_P1;SDS_P2;PMS_P1;PMS_P2;Temp;Humidity;BMP_temperature;BMP_pressure;BME280_temperature;BME280_humidity;BME280_pressure;Samples;Min_cycle;Max_cycle;Signal;HPM_P1;HPM_P2
2023/04/27 00:01:50;;;;;;;0.65;0.65;;;5.60;99.90;;;;;;5018279;28;20496;-74
2023/04/27 00:04:41;;;;;;;0.53;0.53;;;5.50;99.90;;;;;;5015782;28;20565;-73
2023/04/27 00:07:09;;;;;;;1.55;0.90;;;5.50;99.90;;;;;;5014343;28;20438;-75
2023/04/27 00:09:38;;;;;;;1.13;1.02;;;5.50;99.90;;;;;;5017756;28;20436;-75
2023/04/27 00:12:05;;;;;;;0.90;0.70;;;5.50;99.90;;;;;;5016819;28;22256;-73
2023/04/27 00:14:35;;;;;;;1.50;0.80;;;5.50;99.90;;;;;;5014289;28;20462;-76
2023/04/27 00:17:01;;;;;;;0.60;0.60;;;5.40;99.90;;;;;;5016273;28;20445;-75
2023/04/27 00:19:29;;;;;;;0.60;0.60;;;5.40;99.90;;;;;;5015649;28;21022;-75
2023/04/27 00:21:56;;;;;;;1.20;0.70;;;5.30;99.90;;;;;;5017703;28;20844;-75
2023/04/27 00:24:23;;;;;;;3.00;0.85;;;5.20;99.90;;;;;;5011165;28;20942;-76
2023/04/27 00:27:14;;;;;;;0.50;0.50;;;5.10;1.00;;;;;;5014075;28;20492;-73
2023/04/27 00:30:08;;;;;;;0.50;0.50;;;4.90;1.00;;;;;;5018132;28;20414;-73
2023/04/27 00:32:37;;;;;;;1.40;0.40;;;4.70;76.90;;;;;;5016624;28;20461;-73
2023/04/27 00:35:04;;;;;;;1.15;0.77;;;4.60;99.90;;;;;;5015418;28;20481;-74
2023/04/27 00:37:55;;;;;;;4.80;0.70;;;4.50;99.90;;;;;;5014234;28;20906;-74
2023/04/27 00:40:25;;;;;;;0.40;0.40;;;4.30;1.00;;;;;;5020633;28;20435;-74
2023/04/27 00:42:52;;;;;;;0.68;0.60;;;4.20;99.90;;;;;;5011544;28;20466;-74
2023/04/27 00:45:18;;;;;;;2.07;0.40;;;4.10;1.00;;;;;;5014642;28;20443;-74
2023/04/27 00:47:45;;;;;;;0.65;0.65;;;4.10;99.90;;;;;;5016520;28;20454;-74
2023/04/27 00:50:18;;;;;;;4.20;0.70;;;4.10;99.90;;;;;;5007745;28;20475;-74
2023/04/27 00:52:45;;;;;;;7.05;0.80;;;4.20;99.90;;;;;;5015130;28;22585;-74
2023/04/27 00:55:12;;;;;;;0.65;0.63;;;4.20;1.00;;;;;;5017009;28;20923;-73
2023/04/27 00:57:39;;;;;;;1.23;1.13;;;4.20;99.90;;;;;;5012070;28;20955;-74
2023/04/27 01:00:06;;;;;;;0.60;0.60;;;4.30;99.90;;;;;;5011965;28;20439;-74
2023/04/27 01:02:34;;;;;;;1.00;0.80;;;4.40;99.90;;;;;;5012755;28;20440;-74
2023/04/27 01:05:02;;;;;;;0.73;0.70;;;4.40;1.00;;;;;;5012270;28;20430;-74
2023/04/27 01:07:29;;;;;;;0.32;0.32;;;4.50;1.00;;;;;;5013674;28;20453;-74
2023/04/27 01:09:55;;;;;;;1.50;0.65;;;4.50;1.00;;;;;;5013213;28;20496;-74
2023/04/27 01:12:22;;;;;;;0.83;0.77;;;4.50;1.00;;;;;;5013275;28;20434;-74
2023/04/27 01:14:49;;;;;;;1.30;0.70;;;4.60;1.00;;;;;;5015032;28;20447;-74
2023/04/27 01:17:18;;;;;;;0.95;0.60;;;4.60;99.90;;;;;;5013166;28;20453;-75
2023/04/27 01:19:44;;;;;;;0.80;0.80;;;4.70;99.90;;;;;;5014425;28;21304;-74
2023/04/27 01:22:13;;;;;;;0.53;0.53;;;4.80;1.00;;;;;;5015527;28;21067;-74
2023/04/27 01:24:40;;;;;;;0.60;0.60;;;4.80;1.00;;;;;;5009080;28;20439;-74
2023/04/27 01:27:07;;;;;;;0.80;0.80;;;4.80;1.00;;;;;;5014424;28;20435;-74
2023/04/27 01:29:34;;;;;;;1.20;0.80;;;4.70;1.00;;;;;;5013088;28;20450;-74
2023/04/27 01:32:01;;;;;;;0.50;0.50;;;4.60;1.00;;;;;;5030084;28;20951;-74
2023/04/27 01:34:27;;;;;;;0.52;0.52;;;4.50;1.00;;;;;;5010372;28;20435;-74
2023/04/27 01:36:54;;;;;;;0.50;0.50;;;4.20;96.30;;;;;;5012702;28;20510;-74
2023/04/27 01:39:21;;;;;;;0.70;0.70;;;4.00;99.90;;;;;;5015886;28;20508;-74
2023/04/27 01:41:50;;;;;;;1.95;0.75;;;3.90;23.00;;;;;;5015261;28;20427;-74
2023/04/27 01:44:16;;;;;;;0.52;0.52;;;3.90;16.30;;;;;;5015577;28;20496;-74
2023/04/27 01:46:43;;;;;;;0.40;0.40;;;3.90;99.90;;;;;;5031945;28;20496;-74
2023/04/27 01:49:10;;;;;;;1.48;0.95;;;3.80;1.00;;;;;;5014101;28;20493;-74
2023/04/27 01:51:37;;;;;;;12.05;0.95;;;3.70;90.20;;;;;;5010529;28;20435;-74
2023/04/27 01:54:04;;;;;;;2.93;0.60;;;3.70;99.90;;;;;;5010769;28;20446;-74
2023/04/27 01:56:31;;;;;;;0.50;0.50;;;3.60;1.00;;;;;;5015725;28;20463;-74
2023/04/27 01:58:58;;;;;;;0.63;0.63;;;3.50;99.90;;;;;;5017044;28;20426;-74
2023/04/27 02:01:24;;;;;;;0.50;0.50;;;3.40;1.00;;;;;;5014997;28;20479;-74
2023/04/27 02:03:51;;;;;;;1.00;0.80;;;3.30;99.90;;;;;;5016021;28;20481;-74
2023/04/27 02:06:18;;;;;;;0.63;0.63;;;3.30;1.00;;;;;;5013957;28;20430;-74
2023/04/27 02:08:45;;;;;;;2.70;0.40;;;3.30;1.00;;;;;;5016012;28;20988;-74
2023/04/27 02:11:11;;;;;;;0.90;0.90;;;3.30;1.00;;;;;;5017038;28;20438;-74
2023/04/27 02:13:38;;;;;;;0.88;0.88;;;3.30;1.00;;;;;;5014160;28;20427;-74
2023/04/27 02:16:05;;;;;;;1.15;0.55;;;3.40;44.70;;;;;;5014184;28;20435;-74
2023/04/27 02:18:32;;;;;;;0.40;0.40;;;3.40;94.80;;;;;;5014726;28;20442;-74
2023/04/27 02:20:59;;;;;;;0.70;0.70;;;3.40;43.80;;;;;;5015385;28;20815;-74
2023/04/27 02:23:26;;;;;;;0.75;0.75;;;3.30;12.40;;;;;;5011814;28;20508;-74
2023/04/27 02:25:53;;;;;;;0.52;0.52;;;3.40;99.90;;;;;;5011998;28;20557;-74
2023/04/27 02:28:22;;;;;;;0.68;0.50;;;3.40;78.00;;;;;;5014399;28;20928;-74
2023/04/27 02:30:49;;;;;;;0.75;0.75;;;3.40;37.30;;;;;;5015957;28;20817;-74
2023/04/27 02:33:16;;;;;;;0.60;0.60;;;3.40;26.90;;;;;;5014851;28;20437;-74
2023/04/27 02:35:43;;;;;;;1.13;0.47;;;3.40;1.00;;;;;;5015111;28;20490;-75
2023/04/27 02:38:10;;;;;;;0.60;0.55;;;3.40;1.00;;;;;;5013869;28;20462;-74
2023/04/27 02:40:36;;;;;;;0.57;0.50;;;3.40;34.50;;;;;;5014440;28;20446;-75
2023/04/27 02:43:04;;;;;;;1.50;1.20;;;3.40;1.00;;;;;;5015915;28;20426;-74
2023/04/27 02:45:31;;;;;;;0.57;0.57;;;3.40;1.00;;;;;;5010228;28;20431;-74
2023/04/27 02:47:57;;;;;;;0.70;0.70;;;3.40;1.00;;;;;;5009340;28;20853;-74
2023/04/27 02:50:27;;;;;;;1.40;0.40;;;3.30;1.00;;;;;;5011932;28;20435;-74
2023/04/27 02:52:54;;;;;;;0.60;0.40;;;3.20;1.00;;;;;;5015045;28;20532;-74
2023/04/27 02:55:21;;;;;;;0.40;0.40;;;3.20;1.00;;;;;;5013510;28;20445;-74
2023/04/27 02:57:47;;;;;;;0.40;0.40;;;3.20;1.00;;;;;;5016814;28;20439;-74
2023/04/27 03:00:14;;;;;;;0.30;0.30;;;3.00;1.00;;;;;;5011900;28;20435;-74
2023/04/27 03:02:41;;;;;;;0.40;0.40;;;2.90;1.00;;;;;;5013903;28;20441;-74
2023/04/27 03:05:11;;;;;;;0.38;0.38;;;2.80;1.00;;;;;;5014436;28;20442;-74
2023/04/27 03:07:38;;;;;;;0.50;0.50;;;2.60;92.40;;;;;;5031898;28;20790;-74
2023/04/27 03:10:05;;;;;;;0.70;0.57;;;2.50;99.90;;;;;;5017751;28;21169;-74
2023/04/27 03:12:32;;;;;;;1.10;1.00;;;2.30;99.90;;;;;;5015392;28;20438;-75
2023/04/27 03:15:02;;;;;;;0.57;0.57;;;2.20;99.90;;;;;;5016518;28;20434;-74
2023/04/27 03:17:29;;;;;;;0.82;0.60;;;2.20;99.90;;;;;;5017510;28;20438;-74
2023/04/27 03:19:56;;;;;;;1.08;1.08;;;2.20;99.90;;;;;;5016813;28;20474;-75
2023/04/27 03:22:24;;;;;;;0.75;0.75;;;2.20;1.00;;;;;;5020405;28;20893;-75
2023/04/27 03:24:51;;;;;;;0.60;0.50;;;2.30;1.00;;;;;;5017243;28;20441;-74
2023/04/27 03:27:18;;;;;;;0.75;0.43;;;2.30;1.00;;;;;;5018642;28;20440;-74
2023/04/27 03:29:45;;;;;;;0.77;0.57;;;2.50;1.00;;;;;;5017219;28;20973;-74
2023/04/27 03:32:12;;;;;;;1.17;0.80;;;2.50;1.00;;;;;;5017574;28;20435;-74
2023/04/27 03:34:39;;;;;;;5.65;0.77;;;2.60;1.00;;;;;;5015477;28;20513;-74
2023/04/27 03:37:06;;;;;;;0.60;0.60;;;2.70;1.00;;;;;;5015883;28;20833;-74
2023/04/27 03:39:32;;;;;;;0.40;0.40;;;2.70;1.00;;;;;;5015347;28;20432;-75
2023/04/27 03:42:00;;;;;;;1.70;0.80;;;2.80;1.00;;;;;;5030470;28;20435;-74
2023/04/27 03:44:27;;;;;;;1.25;0.73;;;2.70;1.00;;;;;;5013214;28;20438;-76
2023/04/27 03:46:53;;;;;;;0.40;0.40;;;2.70;99.90;;;;;;5017419;28;20431;-74
2023/04/27 03:49:20;;;;;;;0.90;0.70;;;2.60;99.90;;;;;;5016268;28;20484;-74
2023/04/27 03:51:47;;;;;;;0.70;0.70;;;2.60;1.00;;;;;;5014036;28;20968;-75
2023/04/27 03:54:15;;;;;;;1.00;0.75;;;2.60;1.00;;;;;;5016993;28;20450;-75
2023/04/27 03:56:43;;;;;;;2.00;1.08;;;2.50;1.00;;;;;;5018685;28;20439;-75
2023/04/27 03:59:10;;;;;;;0.50;0.50;;;2.60;1.00;;;;;;5017934;28;20454;-75
2023/04/27 04:01:38;;;;;;;0.50;0.50;;;2.60;1.00;;;;;;5017618;28;20442;-75
2023/04/27 04:04:05;;;;;;;0.70;0.40;;;2.70;1.00;;;;;;5018119;28;20550;-75
2023/04/27 04:06:32;;;;;;;1.23;0.73;;;2.80;1.00;;;;;;5018465;28;20439;-75
2023/04/27 04:08:59;;;;;;;2.40;0.30;;;2.90;1.00;;;;;;5016668;28;20443;-75
2023/04/27 04:11:26;;;;;;;0.82;0.82;;;3.00;1.00;;;;;;5016961;28;20775;-75
2023/04/27 04:13:52;;;;;;;2.17;1.45;;;3.10;1.00;;;;;;5013443;28;20441;-75
2023/04/27 04:16:20;;;;;;;0.30;0.30;;;3.20;1.00;;;;;;5015198;28;20442;-75
2023/04/27 04:18:47;;;;;;;0.70;0.70;;;3.40;1.00;;;;;;5019622;28;20493;-75
2023/04/27 04:21:14;;;;;;;0.80;0.52;;;3.50;1.00;;;;;;5016938;28;20817;-75
2023/04/27 04:23:40;;;;;;;0.75;0.75;;;3.60;99.90;;;;;;5016118;28;21286;-75
2023/04/27 04:26:08;;;;;;;0.50;0.50;;;3.70;99.90;;;;;;5013126;28;20434;-75
2023/04/27 04:28:36;;;;;;;1.77;0.70;;;3.80;99.90;;;;;;5018131;28;20462;-75
2023/04/27 04:31:05;;;;;;;0.88;0.88;;;3.90;99.90;;;;;;5016778;28;20449;-75
2023/04/27 04:33:32;;;;;;;0.60;0.60;;;4.10;1.00;;;;;;5016158;28;20481;-75
2023/04/27 04:36:01;;;;;;;0.60;0.60;;;4.10;99.90;;;;;;5013187;28;20927;-75
2023/04/27 04:38:29;;;;;;;1.10;0.63;;;4.20;1.00;;;;;;5017549;28;20445;-75
2023/04/27 04:40:55;;;;;;;0.68;0.68;;;4.30;99.90;;;;;;5016455;28;20427;-75
2023/04/27 04:43:22;;;;;;;0.55;0.40;;;4.30;99.90;;;;;;5016746;28;20427;-75
2023/04/27 04:45:48;;;;;;;0.52;0.40;;;4.30;1.00;;;;;;5014004;28;20433;-75
2023/04/27 04:48:16;;;;;;;0.43;0.43;;;4.40;99.90;;;;;;5015740;28;20527;-75
2023/04/27 04:50:43;;;;;;;0.85;0.82;;;4.30;99.90;;;;;;5013035;28;20453;-75
2023/04/27 04:53:09;;;;;;;0.47;0.47;;;4.30;25.20;;;;;;5015317;28;20942;-75
2023/04/27 04:55:36;;;;;;;0.55;0.55;;;4.30;1.00;;;;;;5015208;28;21437;-75
2023/04/27 04:58:03;;;;;;;0.80;0.80;;;4.30;1.00;;;;;;5016537;28;20430;-75
2023/04/27 05:00:30;;;;;;;0.40;0.40;;;4.40;1.00;;;;;;5015606;28;20435;-75
2023/04/27 05:02:57;;;;;;;0.45;0.45;;;4.40;1.00;;;;;;5030971;28;20438;-75
2023/04/27 05:05:24;;;;;;;1.75;0.55;;;4.40;99.90;;;;;;5014001;28;20521;-75
2023/04/27 05:07:51;;;;;;;2.20;0.82;;;4.40;99.90;;;;;;5015314;28;20936;-75
2023/04/27 05:10:19;;;;;;;1.83;0.90;;;4.50;99.90;;;;;;5015875;28;20427;-75
2023/04/27 05:12:45;;;;;;;0.60;0.60;;;4.50;10.20;;;;;;5010675;28;22716;-75
2023/04/27 05:15:12;;;;;;;0.80;0.50;;;4.60;1.00;;;;;;5014764;28;21227;-75
2023/04/27 05:17:41;;;;;;;0.40;0.40;;;4.70;1.00;;;;;;5008370;28;21780;-75
2023/04/27 05:20:09;;;;;;;0.40;0.40;;;4.70;99.90;;;;;;5009252;28;20443;-75
2023/04/27 05:22:36;;;;;;;2.17;0.80;;;4.90;4.20;;;;;;5011533;28;20437;-76
2023/04/27 05:25:05;;;;;;;2.00;0.55;;;5.00;1.00;;;;;;5008232;28;20940;-75
2023/04/27 05:27:32;;;;;;;0.52;0.52;;;5.10;99.90;;;;;;5026176;28;21948;-76
2023/04/27 05:30:00;;;;;;;0.80;0.65;;;5.20;21.70;;;;;;5009253;28;20470;-74
2023/04/27 05:32:28;;;;;;;0.40;0.40;;;5.30;1.00;;;;;;5004207;28;21086;-75
2023/04/27 05:34:55;;;;;;;0.55;0.55;;;5.40;1.00;;;;;;5008605;28;20434;-74
2023/04/27 05:37:21;;;;;;;0.93;0.93;;;5.50;1.00;;;;;;5011411;28;20442;-74
2023/04/27 05:39:51;;;;;;;1.77;0.88;;;5.70;1.00;;;;;;5009637;28;20430;-74
2023/04/27 05:42:18;;;;;;;6.10;0.70;;;5.80;99.90;;;;;;5011807;28;20965;-74
2023/04/27 05:44:44;;;;;;;0.75;0.75;;;6.30;99.90;;;;;;5011509;28;20440;-74
2023/04/27 05:47:11;;;;;;;0.63;0.63;;;7.10;99.90;;;;;;5012696;28;20426;-74
2023/04/27 05:49:39;;;;;;;3.20;0.98;;;7.90;1.00;;;;;;5010363;28;20448;-74
2023/04/27 05:52:06;;;;;;;1.00;0.68;;;8.70;1.00;;;;;;5010372;28;20442;-74
2023/04/27 05:54:33;;;;;;;0.88;0.77;;;9.20;99.90;;;;;;5008482;28;20447;-74
2023/04/27 05:57:01;;;;;;;2.63;1.00;;;9.90;99.90;;;;;;5013193;28;20442;-75
2023/04/27 05:59:28;;;;;;;0.65;0.65;;;10.30;99.90;;;;;;5026500;28;20441;-74
2023/04/27 06:01:55;;;;;;;0.80;0.80;;;11.00;99.90;;;;;;5009747;28;20435;-74
2023/04/27 06:04:23;;;;;;;3.97;1.33;;;11.20;99.90;;;;;;5008831;28;20501;-74
2023/04/27 06:06:51;;;;;;;0.60;0.60;;;11.30;99.90;;;;;;5005978;28;20467;-75
2023/04/27 06:09:22;;;;;;;0.65;0.65;;;11.60;99.90;;;;;;5011487;28;20439;-76
2023/04/27 06:11:52;;;;;;;0.98;0.98;;;11.70;99.90;;;;;;5010569;28;20431;-75
2023/04/27 06:14:19;;;;;;;0.68;0.68;;;11.60;99.90;;;;;;5007383;28;20826;-75
2023/04/27 06:16:45;;;;;;;0.70;0.70;;;11.90;99.90;;;;;;5001517;28;21173;-75
2023/04/27 06:19:15;;;;;;;0.60;0.60;;;12.20;99.90;;;;;;5005696;28;20426;-75
2023/04/27 06:21:42;;;;;;;0.60;0.60;;;12.10;99.90;;;;;;5006696;28;20513;-75
2023/04/27 06:24:09;;;;;;;1.80;0.80;;;12.30;99.90;;;;;;5000367;28;20805;-75
2023/04/27 06:26:35;;;;;;;0.77;0.77;;;12.30;99.90;;;;;;5021212;28;20445;-76
2023/04/27 06:29:03;;;;;;;0.80;0.63;;;12.70;99.90;;;;;;5005516;28;20710;-75
2023/04/27 06:31:32;;;;;;;2.17;0.90;;;13.20;99.90;;;;;;5009294;28;20561;-75
2023/04/27 06:33:59;;;;;;;1.75;0.90;;;13.10;99.90;;;;;;5004891;28;20617;-75
2023/04/27 06:36:30;;;;;;;2.10;0.65;;;12.80;99.90;;;;;;5006462;28;20906;-76
2023/04/27 06:38:58;;;;;;;1.30;1.02;;;12.00;99.90;;;;;;5005693;28;20444;-74
2023/04/27 06:41:26;;;;;;;2.57;0.47;;;11.30;99.90;;;;;;5009989;28;21416;-75
2023/04/27 06:43:53;;;;;;;5.40;0.98;;;11.10;99.90;;;;;;5010126;28;20713;-74
2023/04/27 06:46:22;;;;;;;0.70;0.70;;;11.20;99.90;;;;;;5009684;28;20488;-75
2023/04/27 06:48:49;;;;;;;0.47;0.45;;;11.30;99.90;;;;;;5005675;28;21970;-75
2023/04/27 06:51:16;;;;;;;0.60;0.60;;;11.50;99.90;;;;;;5011618;28;20438;-75
2023/04/27 06:53:42;;;;;;;1.20;0.90;;;11.70;99.90;;;;;;5006935;28;20881;-75
2023/04/27 06:56:10;;;;;;;0.30;0.30;;;12.20;99.90;;;;;;5009279;28;20442;-75
2023/04/27 06:58:38;;;;;;;0.38;0.32;;;12.40;99.90;;;;;;5011809;28;20951;-75
2023/04/27 07:01:05;;;;;;;0.50;0.50;;;12.90;99.90;;;;;;5008953;28;20439;-75
2023/04/27 07:03:34;;;;;;;1.10;0.55;;;13.10;99.90;;;;;;5009141;28;20438;-75
2023/04/27 07:06:01;;;;;;;1.50;0.50;;;13.60;99.90;;;;;;5010042;28;20466;-75
2023/04/27 07:08:29;;;;;;;1.10;0.70;;;14.30;99.90;;;;;;5009070;28;20447;-75
2023/04/27 07:10:56;;;;;;;0.47;0.47;;;15.00;99.90;;;;;;5008295;28;20468;-75
2023/04/27 07:13:23;;;;;;;1.02;0.77;;;15.20;99.90;;;;;;5009440;28;20571;-75
2023/04/27 07:15:57;;;;;;;0.45;0.45;;;15.00;99.90;;;;;;5008713;28;20775;-75
2023/04/27 07:18:26;;;;;;;0.55;0.55;;;14.90;99.90;;;;;;5008481;28;20439;-75
2023/04/27 07:20:54;;;;;;;0.70;0.67;;;15.10;99.90;;;;;;5011772;28;20430;-76
2023/04/27 07:23:20;;;;;;;1.35;0.60;;;15.10;99.90;;;;;;5009124;28;20443;-75
2023/04/27 07:25:48;;;;;;;2.47;0.77;;;15.20;99.90;;;;;;5005678;28;20787;-75
2023/04/27 07:28:15;;;;;;;0.65;0.50;;;15.40;99.90;;;;;;5007414;28;20441;-76
2023/04/27 07:30:42;;;;;;;0.50;0.50;;;15.60;99.90;;;;;;5007577;28;20918;-75
2023/04/27 07:33:08;;;;;;;3.58;0.75;;;16.00;99.90;;;;;;4999335;28;20491;-75
2023/04/27 07:35:36;;;;;;;0.60;0.60;;;15.90;99.90;;;;;;5005937;28;20431;-75
2023/04/27 07:38:02;;;;;;;1.20;0.70;;;16.20;99.90;;;;;;5008084;28;20752;-75
2023/04/27 07:40:31;;;;;;;0.65;0.52;;;16.20;99.90;;;;;;5012125;28;20438;-75
2023/04/27 07:42:58;;;;;;;3.53;0.70;;;16.00;99.90;;;;;;5012262;28;20799;-75
2023/04/27 07:45:32;;;;;;;2.67;0.77;;;16.00;99.90;;;;;;5009771;28;20441;-75
2023/04/27 07:48:00;;;;;;;0.50;0.50;;;16.10;99.90;;;;;;5008918;28;20435;-76
2023/04/27 07:50:30;;;;;;;1.45;0.45;;;16.20;99.90;;;;;;5008466;28;20803;-76
2023/04/27 07:52:57;;;;;;;0.80;0.80;;;16.00;99.90;;;;;;5010600;28;20984;-75
2023/04/27 07:55:25;;;;;;;4.10;0.70;;;15.80;99.90;;;;;;5008226;28;21002;-75
2023/04/27 07:57:53;;;;;;;0.50;0.50;;;15.90;99.90;;;;;;5007949;28;20434;-74
2023/04/27 08:00:21;;;;;;;0.80;0.65;;;15.40;99.90;;;;;;5024088;28;20439;-75
2023/04/27 08:02:51;;;;;;;2.40;0.60;;;15.60;99.90;;;;;;5008920;28;20438;-76
2023/04/27 08:05:18;;;;;;;5.90;0.90;;;15.70;99.90;;;;;;5010065;28;20627;-76
2023/04/27 08:07:46;;;;;;;2.20;0.43;;;15.70;99.90;;;;;;5010424;28;20439;-76
2023/04/27 08:10:14;;;;;;;2.20;0.70;;;15.30;99.90;;;;;;5006467;28;20628;-75
2023/04/27 08:12:44;;;;;;;2.97;0.60;;;15.50;99.90;;;;;;5009710;28;20431;-75
2023/04/27 08:15:10;;;;;;;0.47;0.47;;;15.70;99.90;;;;;;5008951;28;20467;-74
2023/04/27 08:17:42;;;;;;;1.10;0.47;;;16.00;99.90;;;;;;5011883;28;21008;-75
2023/04/27 08:20:10;;;;;;;1.10;1.00;;;16.50;99.90;;;;;;5012136;28;23110;-75
2023/04/27 08:22:41;;;;;;;1.15;0.77;;;17.10;99.90;;;;;;5011384;28;21629;-76
2023/04/27 08:25:08;;;;;;;0.52;0.52;;;17.20;99.90;;;;;;5010603;28;20438;-75
2023/04/27 08:27:39;;;;;;;1.45;0.68;;;16.30;99.90;;;;;;5011550;28;20431;-75
2023/04/27 08:30:07;;;;;;;0.97;0.70;;;16.60;99.90;;;;;;5012817;28;20481;-76
2023/04/27 08:32:34;;;;;;;1.10;0.80;;;16.90;99.90;;;;;;5010709;28;20446;-76
2023/04/27 08:35:03;;;;;;;0.57;0.57;;;17.40;99.90;;;;;;5007954;28;20501;-75
2023/04/27 08:37:31;;;;;;;0.30;0.30;;;17.60;99.90;;;;;;5008078;28;20423;-76
2023/04/27 08:39:59;;;;;;;2.10;0.60;;;17.60;99.90;;;;;;5009238;28;20442;-74
2023/04/27 08:42:29;;;;;;;0.55;0.55;;;17.40;99.90;;;;;;5019359;28;20438;-74
2023/04/27 08:44:57;;;;;;;1.10;0.68;;;17.90;99.90;;;;;;5011194;28;20437;-76
2023/04/27 08:47:23;;;;;;;2.90;0.50;;;17.90;99.90;;;;;;5004834;28;20442;-76
2023/04/27 08:50:08;;;;;;;0.60;0.50;;;18.40;99.90;;;;;;5007415;28;20443;-75
2023/04/27 08:52:36;;;;;;;6.50;0.90;;;18.00;99.90;;;;;;5007457;28;20560;-76
2023/04/27 08:55:03;;;;;;;1.23;0.60;;;18.10;99.90;;;;;;5004886;28;20431;-75
2023/04/27 08:57:30;;;;;;;0.57;0.57;;;17.40;99.90;;;;;;5007975;28;20864;-76
2023/04/27 09:00:05;;;;;;;0.65;0.65;;;16.80;99.90;;;;;;5010961;28;20474;-77
2023/04/27 09:02:32;;;;;;;0.80;0.70;;;16.70;99.90;;;;;;5007397;28;20441;-76
2023/04/27 09:04:59;;;;;;;2.05;0.65;;;16.70;99.90;;;;;;5006204;28;20496;-75
2023/04/27 09:07:27;;;;;;;0.80;0.80;;;16.60;99.90;;;;;;5003977;28;20447;-76
2023/04/27 09:10:04;;;;;;;2.25;0.52;;;15.90;99.90;;;;;;5005084;28;20453;-75
2023/04/27 09:12:30;;;;;;;0.80;0.73;;;16.00;99.90;;;;;;5006159;28;20450;-75
2023/04/27 09:15:02;;;;;;;0.88;0.73;;;15.80;99.90;;;;;;5009634;28;20507;-75
2023/04/27 09:17:33;;;;;;;0.98;0.80;;;16.50;99.90;;;;;;5010458;28;20567;-75
2023/04/27 09:20:09;;;;;;;0.50;0.50;;;16.90;99.90;;;;;;5006683;28;20441;-76
2023/04/27 09:22:56;;;;;;;1.13;0.75;;;17.00;99.90;;;;;;5008742;28;20848;-76
2023/04/27 09:25:31;;;;;;;1.38;0.60;;;17.00;99.90;;;;;;5009775;28;20447;-75
2023/04/27 09:28:00;;;;;;;1.40;0.80;;;16.90;99.90;;;;;;5012207;28;20450;-75
2023/04/27 09:30:29;;;;;;;2.85;0.75;;;17.20;99.90;;;;;;5014450;28;20469;-76
2023/04/27 09:32:58;;;;;;;1.73;0.60;;;17.80;99.90;;;;;;5008390;28;20566;-76
2023/04/27 09:35:28;;;;;;;1.03;0.53;;;17.50;99.90;;;;;;5006800;28;20553;-76
2023/04/27 09:37:55;;;;;;;0.70;0.70;;;18.10;99.90;;;;;;5011090;28;20522;-76
2023/04/27 09:40:28;;;;;;;0.90;0.60;;;18.40;99.90;;;;;;5004611;28;20443;-74
2023/04/27 09:42:56;;;;;;;0.68;0.68;;;18.60;99.90;;;;;;5006314;28;20437;-76
2023/04/27 09:45:25;;;;;;;1.90;0.83;;;18.60;99.90;;;;;;5002900;28;20439;-76
2023/04/27 09:47:54;;;;;;;3.13;0.70;;;18.60;99.90;;;;;;5005153;28;20931;-76
2023/04/27 09:50:21;;;;;;;1.15;0.63;;;18.40;99.90;;;;;;5003442;28;20428;-76
2023/04/27 09:52:48;;;;;;;1.73;0.60;;;18.40;99.90;;;;;;5007007;28;20435;-76
2023/04/27 09:55:43;;;;;;;0.70;0.57;;;18.90;99.90;;;;;;5007379;28;20881;-76
2023/04/27 09:58:31;;;;;;;1.00;1.00;;;18.30;99.90;;;;;;5007512;28;20492;-75
2023/04/27 10:01:05;;;;;;;1.20;0.80;;;18.20;99.90;;;;;;5010216;28;20445;-74
2023/04/27 10:03:50;;;;;;;0.60;0.60;;;18.20;99.90;;;;;;5005667;28;20444;-75
2023/04/27 10:06:41;;;;;;;1.30;0.60;;;18.60;99.90;;;;;;5004482;28;20638;-75
2023/04/27 10:09:09;;;;;;;1.20;1.10;;;19.30;99.90;;;;;;5008491;28;20561;-76
2023/04/27 10:11:42;;;;;;;0.75;0.70;;;19.60;99.90;;;;;;5009623;28;20431;-76
2023/04/27 10:14:17;;;;;;;0.50;0.50;;;19.70;99.90;;;;;;5006740;28;21102;-74
2023/04/27 10:16:51;;;;;;;1.60;0.80;;;19.20;99.90;;;;;;5014754;28;20434;-74
2023/04/27 10:19:27;;;;;;;2.47;0.57;;;18.30;99.90;;;;;;5014250;28;20514;-75
2023/04/27 10:22:02;;;;;;;1.77;0.65;;;18.80;99.90;;;;;;5013908;28;20434;-75
2023/04/27 10:24:38;;;;;;;0.70;0.70;;;19.40;99.90;;;;;;5009583;28;20529;-75
2023/04/27 10:27:07;;;;;;;0.55;0.55;;;19.60;99.90;;;;;;5011074;28;20442;-75
2023/04/27 10:29:40;;;;;;;1.88;0.80;;;19.70;99.90;;;;;;5013668;28;20442;-75
2023/04/27 10:32:08;;;;;;;0.60;0.60;;;20.20;99.90;;;;;;5011473;28;20546;-75
2023/04/27 10:34:48;;;;;;;0.70;0.70;;;20.50;99.90;;;;;;5008937;28;20931;-76
2023/04/27 10:37:24;;;;;;;3.47;1.05;;;19.80;99.90;;;;;;5012713;28;20921;-76
2023/04/27 10:40:04;;;;;;;0.52;0.52;;;18.90;99.90;;;;;;5013385;28;20535;-76
2023/04/27 10:42:34;;;;;;;0.93;0.73;;;19.60;99.90;;;;;;5015991;28;20438;-76
2023/04/27 10:45:01;;;;;;;0.98;0.90;;;19.90;99.90;;;;;;5009626;28;20446;-76
2023/04/27 10:47:42;;;;;;;2.90;0.65;;;20.40;99.90;;;;;;5014236;28;20435;-76
2023/04/27 10:50:15;;;;;;;0.50;0.50;;;19.80;99.90;;;;;;5010070;28;20725;-76
2023/04/27 10:52:43;;;;;;;0.77;0.63;;;19.90;99.90;;;;;;5012242;28;20947;-76
2023/04/27 10:55:21;;;;;;;0.90;0.80;;;19.30;99.90;;;;;;5010919;28;20438;-76
2023/04/27 10:57:53;;;;;;;1.00;0.90;;;19.40;99.90;;;;;;5011279;28;20949;-76
2023/04/27 11:00:26;;;;;;;1.10;0.82;;;18.60;99.90;;;;;;5010669;28;20865;-76
2023/04/27 11:02:54;;;;;;;3.30;0.60;;;19.20;99.90;;;;;;5008484;28;20434;-76
2023/04/27 11:05:31;;;;;;;0.70;0.70;;;19.00;99.90;;;;;;5015272;28;20529;-75
2023/04/27 11:08:05;;;;;;;0.60;0.60;;;19.50;99.90;;;;;;5017263;28;20436;-75
2023/04/27 11:10:34;;;;;;;1.80;0.70;;;20.00;99.90;;;;;;5020077;28;20431;-75
2023/04/27 11:13:24;;;;;;;0.50;0.50;;;19.50;99.90;;;;;;5017039;28;20499;-76
2023/04/27 11:15:55;;;;;;;0.68;0.68;;;20.50;99.90;;;;;;5012903;28;20441;-75
2023/04/27 11:18:25;;;;;;;3.28;0.85;;;21.10;99.90;;;;;;5012880;28;20825;-76
2023/04/27 11:21:09;;;;;;;7.38;0.80;;;21.20;99.90;;;;;;5007870;28;20440;-76
2023/04/27 11:23:39;;;;;;;1.87;0.57;;;21.60;99.90;;;;;;5011026;28;20435;-76
2023/04/27 11:26:17;;;;;;;2.17;0.68;;;21.40;99.90;;;;;;5010247;28;20961;-76
2023/04/27 11:28:58;;;;;;;0.68;0.68;;;20.10;99.90;;;;;;5009260;28;20450;-76
2023/04/27 11:31:26;;;;;;;0.57;0.57;;;19.80;99.90;;;;;;5009297;28;20430;-76
2023/04/27 11:33:53;;;;;;;0.65;0.60;;;19.90;99.90;;;;;;5009580;28;20435;-77
2023/04/27 11:36:24;;;;;;;0.75;0.75;;;19.90;99.90;;;;;;5009529;28;20450;-77
2023/04/27 11:38:56;;;;;;;1.00;0.90;;;20.10;99.90;;;;;;5010761;28;20431;-77
2023/04/27 11:41:35;;;;;;;0.88;0.88;;;19.90;99.90;;;;;;5007050;28;20431;-76
2023/04/27 11:44:09;;;;;;;1.20;0.90;;;19.70;99.90;;;;;;5012200;28;20500;-77
2023/04/27 11:46:36;;;;;;;0.80;0.70;;;20.20;99.90;;;;;;5029056;28;20443;-77
2023/04/27 11:49:05;;;;;;;0.80;0.80;;;20.60;99.90;;;;;;5007512;28;20799;-76
2023/04/27 11:51:38;;;;;;;0.70;0.70;;;20.70;99.90;;;;;;5002035;28;20560;-75
2023/04/27 11:54:06;;;;;;;1.38;0.88;;;21.00;99.90;;;;;;5011247;28;20444;-76
2023/04/27 11:56:38;;;;;;;3.00;0.80;;;21.10;99.90;;;;;;5022076;28;20495;-76
2023/04/27 11:59:16;;;;;;;0.60;0.60;;;21.40;99.90;;;;;;5022677;28;21015;-76
2023/04/27 12:01:43;;;;;;;0.60;0.60;;;21.60;99.90;;;;;;5024530;28;20512;-76
2023/04/27 12:04:10;;;;;;;0.82;0.82;;;21.80;99.90;;;;;;5020159;28;20452;-76
2023/04/27 12:06:37;;;;;;;0.80;0.50;;;22.20;99.90;;;;;;5026212;28;20492;-76
2023/04/27 12:09:04;;;;;;;1.95;1.08;;;21.60;99.90;;;;;;5018294;28;20513;-76
2023/04/27 12:11:32;;;;;;;1.73;0.88;;;21.90;99.90;;;;;;5008326;28;20471;-76
2023/04/27 12:14:01;;;;;;;9.00;1.00;;;22.10;99.90;;;;;;5011067;28;20433;-76
2023/04/27 12:16:28;;;;;;;0.85;0.85;;;22.40;99.90;;;;;;5022588;28;20444;-77
2023/04/27 12:18:55;;;;;;;0.55;0.55;;;22.80;99.90;;;;;;5006795;28;20470;-76
2023/04/27 12:21:22;;;;;;;2.60;1.40;;;23.30;99.90;;;;;;5010538;28;20435;-76
2023/04/27 12:23:51;;;;;;;1.10;0.88;;;23.50;99.90;;;;;;5009511;28;20431;-76
2023/04/27 12:26:19;;;;;;;2.35;0.95;;;23.40;99.90;;;;;;5010897;28;20438;-76
2023/04/27 12:28:49;;;;;;;4.10;1.15;;;23.30;99.90;;;;;;5005835;28;20434;-76
2023/04/27 12:31:23;;;;;;;3.08;1.15;;;22.70;99.90;;;;;;5008732;28;21016;-76
2023/04/27 12:33:53;;;;;;;1.10;0.60;;;22.60;99.90;;;;;;5002558;28;21026;-76
2023/04/27 12:36:21;;;;;;;0.90;0.60;;;22.40;99.90;;;;;;5005269;28;20436;-76
2023/04/27 12:38:47;;;;;;;0.80;0.80;;;22.60;99.90;;;;;;4997991;28;20438;-75
2023/04/27 12:41:14;;;;;;;1.13;1.10;;;22.80;99.90;;;;;;5006983;28;20519;-75
2023/04/27 12:43:42;;;;;;;1.00;1.00;;;22.70;99.90;;;;;;5006902;28;20463;-75
2023/04/27 12:46:09;;;;;;;1.77;0.85;;;22.60;99.90;;;;;;5008934;28;20749;-74
2023/04/27 12:48:35;;;;;;;0.73;0.73;;;22.60;99.90;;;;;;5020696;28;20648;-75
2023/04/27 12:51:08;;;;;;;0.50;0.50;;;23.20;99.90;;;;;;5002028;28;20442;-75
2023/04/27 12:53:36;;;;;;;0.60;0.55;;;23.60;99.90;;;;;;5007073;28;20744;-75
2023/04/27 12:56:03;;;;;;;0.63;0.63;;;22.60;99.90;;;;;;5023248;28;20886;-74
2023/04/27 12:58:33;;;;;;;0.77;0.53;;;21.50;99.90;;;;;;5020992;28;20436;-75
2023/04/27 13:01:00;;;;;;;1.98;0.70;;;21.50;99.90;;;;;;5007465;28;20439;-74
2023/04/27 13:03:32;;;;;;;0.60;0.50;;;21.40;99.90;;;;;;5003378;28;20917;-74